SALOWI 191720Z 06011KT 9999 FEW070 27/12 Q1014 NOSIG
FTLOWI 191715Z 1918/2018 08010KT 9999 FEW070 TX31/2013Z TN14/2004Z BECMG 1918/1920 VRB02KT CAVOK BECMG 2009/2011 08006KT 9999 SCT070 TEMPO 2013/2018 09012KT SCT070 FEW070CB PROB30 TEMPO 2014/2018 VRB15G25KT TSRA SCT060CB BKN070